createdAt,value
2024-05-09T00:01:12.595Z,19.88
2024-05-09T00:03:44.594Z,20.25
2024-05-09T00:06:17.823Z,19.98
2024-05-09T00:08:48.144Z,19.52
2024-05-09T00:11:20.604Z,20.48
2024-05-09T00:13:51.119Z,20.13
2024-05-09T00:16:21.387Z,20.23
2024-05-09T00:18:51.689Z,19.90
2024-05-09T00:21:24.777Z,21.25
2024-05-09T00:23:55.045Z,21.03
2024-05-09T00:26:25.477Z,21.33
2024-05-09T00:28:55.896Z,23.95
2024-05-09T00:31:28.532Z,22.20
2024-05-09T00:33:58.970Z,22.15
2024-05-09T00:36:32.245Z,21.93
2024-05-09T00:39:02.747Z,22.58
2024-05-09T00:41:36.110Z,21.20
2024-05-09T00:44:06.471Z,20.70
2024-05-09T00:46:36.892Z,22.00
2024-05-09T00:49:07.212Z,20.33
2024-05-09T00:51:42.145Z,21.20
2024-05-09T00:54:12.418Z,22.27
2024-05-09T00:56:43.267Z,20.80
2024-05-09T00:59:13.748Z,20.07
2024-05-09T01:01:44.372Z,20.30
2024-05-09T01:04:15.019Z,22.35
2024-05-09T01:06:47.936Z,21.60
2024-05-09T01:09:18.282Z,23.42
2024-05-09T01:11:48.886Z,20.85
2024-05-09T01:14:19.456Z,20.13
2024-05-09T01:16:50.138Z,19.83
2024-05-09T01:19:32.842Z,22.90
2024-05-09T01:22:08.021Z,22.02
2024-05-09T01:24:41.095Z,20.48
2024-05-09T01:27:11.521Z,21.05
2024-05-09T01:29:41.775Z,21.25
2024-05-09T01:32:12.082Z,20.67
2024-05-09T01:34:42.570Z,19.98
2024-05-09T01:37:13.055Z,21.15
2024-05-09T01:39:46.185Z,18.93
2024-05-09T01:42:16.741Z,20.77
2024-05-09T01:44:47.048Z,21.45
2024-05-09T01:47:17.601Z,21.50
2024-05-09T01:49:48.137Z,22.60
2024-05-09T01:52:18.639Z,21.13
2024-05-09T01:54:51.722Z,21.48
2024-05-09T01:57:22.050Z,22.00
2024-05-09T01:59:52.407Z,23.00
2024-05-09T02:02:22.924Z,22.08
2024-05-09T02:04:53.303Z,20.60
2024-05-09T02:07:23.683Z,22.30
2024-05-09T02:09:57.692Z,23.00
2024-05-09T02:12:28.035Z,23.65
2024-05-09T02:14:58.728Z,23.45
2024-05-09T02:17:29.492Z,22.90
2024-05-09T02:19:59.975Z,21.65
2024-05-09T02:22:30.333Z,23.65
2024-05-09T02:25:03.758Z,24.48
2024-05-09T02:27:34.227Z,22.87
2024-05-09T02:30:09.905Z,23.25
2024-05-09T02:32:45.911Z,25.23
2024-05-09T02:35:16.703Z,24.45
2024-05-09T02:37:44.386Z,20.90
2024-05-09T02:40:25.216Z,21.25
2024-05-09T02:42:56.681Z,19.73
2024-05-09T02:45:27.692Z,20.60
2024-05-09T02:47:55.510Z,21.88
2024-05-09T02:50:33.903Z,21.52
2024-05-09T02:53:06.541Z,21.33
2024-05-09T02:55:39.435Z,23.50
2024-05-09T02:58:08.353Z,20.25
2024-05-09T03:00:41.534Z,20.80
2024-05-09T03:03:12.809Z,20.05
2024-05-09T03:05:45.836Z,20.55
2024-05-09T03:08:14.139Z,19.42
2024-05-09T03:10:47.449Z,19.63
2024-05-09T03:13:16.260Z,21.23
2024-05-09T03:15:47.138Z,19.73
2024-05-09T03:18:16.139Z,20.27
2024-05-09T03:20:46.747Z,20.50
2024-05-09T03:23:14.598Z,20.00
2024-05-09T03:25:47.837Z,21.25
2024-05-09T03:28:15.532Z,21.25
2024-05-09T03:30:45.845Z,21.63
2024-05-09T03:33:15.626Z,20.65
2024-05-09T03:35:47.213Z,20.73
2024-05-09T03:38:18.260Z,21.23
2024-05-09T03:40:50.007Z,21.83
2024-05-09T03:43:21.750Z,22.88
2024-05-09T03:45:53.296Z,20.23
2024-05-09T03:48:21.515Z,20.00
2024-05-09T03:50:51.963Z,19.90
2024-05-09T03:53:19.760Z,18.27
2024-05-09T03:55:52.882Z,21.35
2024-05-09T03:58:20.808Z,19.17
2024-05-09T04:00:51.252Z,19.60
2024-05-09T04:03:19.247Z,19.02
2024-05-09T04:05:49.760Z,19.40
2024-05-09T04:08:17.398Z,20.13
2024-05-09T04:10:47.876Z,21.13
2024-05-09T04:13:18.330Z,19.25
2024-05-09T04:15:48.686Z,21.75
2024-05-09T04:18:17.807Z,20.10
2024-05-09T04:20:48.219Z,19.20
2024-05-09T04:23:15.975Z,20.80
2024-05-09T04:25:47.083Z,22.90
2024-05-09T04:28:15.088Z,22.42
2024-05-09T04:30:48.231Z,22.05
2024-05-09T04:33:20.232Z,22.48
2024-05-09T04:35:49.636Z,21.40
2024-05-09T04:38:20.301Z,19.67
2024-05-09T04:40:48.281Z,21.13
2024-05-09T04:43:20.688Z,22.70
2024-05-09T04:45:51.598Z,19.60
2024-05-09T04:48:22.225Z,20.77
2024-05-09T04:50:50.236Z,21.40
2024-05-09T04:53:20.821Z,19.00
2024-05-09T04:55:48.966Z,19.98
2024-05-09T04:58:19.383Z,19.58
2024-05-09T05:00:47.148Z,22.13
2024-05-09T05:03:20.690Z,20.88
2024-05-09T05:05:48.752Z,20.52
2024-05-09T05:08:19.907Z,22.27
2024-05-09T05:10:49.121Z,21.38
2024-05-09T05:13:21.594Z,22.58
2024-05-09T05:15:51.113Z,22.60
2024-05-09T05:18:24.910Z,24.70
2024-05-09T05:20:53.057Z,23.67
2024-05-09T05:23:24.455Z,26.65
2024-05-09T05:25:53.911Z,23.92
2024-05-09T05:28:24.899Z,26.83
2024-05-09T05:30:52.591Z,25.40
2024-05-09T05:33:27.997Z,27.02
2024-05-09T05:35:57.493Z,29.02
2024-05-09T05:38:28.612Z,26.00
2024-05-09T05:40:56.750Z,26.63
2024-05-09T05:43:27.314Z,27.10
2024-05-09T05:45:54.978Z,25.70
2024-05-09T05:48:28.139Z,26.60
2024-05-09T05:50:56.073Z,28.50
2024-05-09T05:53:26.554Z,27.27
2024-05-09T05:55:54.556Z,27.83
2024-05-09T05:58:24.979Z,29.55
2024-05-09T06:00:53.878Z,31.88
2024-05-09T06:03:24.200Z,34.08
2024-05-09T06:05:54.450Z,32.83
2024-05-09T06:08:27.055Z,38.88
2024-05-09T06:10:57.811Z,39.75
2024-05-09T06:13:28.513Z,30.77
2024-05-09T06:15:56.326Z,29.70
2024-05-09T06:18:26.982Z,29.95
2024-05-09T06:20:57.427Z,31.23
2024-05-09T06:23:27.831Z,32.22
2024-05-09T06:25:55.593Z,30.52
2024-05-09T06:28:25.998Z,34.63
2024-05-09T06:30:53.689Z,34.38
2024-05-09T06:33:24.510Z,31.65
2024-05-09T06:35:54.521Z,33.05
2024-05-09T06:38:27.694Z,32.57
2024-05-09T06:40:55.681Z,33.63
2024-05-09T06:43:26.406Z,33.33
2024-05-09T06:45:54.275Z,28.75
2024-05-09T06:48:24.963Z,29.50
2024-05-09T06:50:52.931Z,31.02
2024-05-09T06:53:27.899Z,30.95
2024-05-09T06:55:55.787Z,30.45
2024-05-09T06:58:26.029Z,28.40
2024-05-09T07:00:53.753Z,28.05
2024-05-09T07:03:24.327Z,28.33
2024-05-09T07:05:52.095Z,26.50
2024-05-09T07:08:22.561Z,23.05
2024-05-09T07:10:53.134Z,21.73
2024-05-09T07:13:23.721Z,23.67
2024-05-09T07:15:51.400Z,20.27
2024-05-09T07:18:22.216Z,16.40
2024-05-09T07:20:50.742Z,15.18
2024-05-09T07:23:21.708Z,19.92
2024-05-09T07:25:52.028Z,16.25
2024-05-09T07:28:25.209Z,16.60
2024-05-09T07:30:54.437Z,17.15
2024-05-09T07:33:25.398Z,15.55
2024-05-09T07:35:53.322Z,15.55
2024-05-09T07:38:24.638Z,15.43
2024-05-09T07:40:55.014Z,15.00
2024-05-09T07:43:25.283Z,17.75
2024-05-09T07:45:55.211Z,15.25
2024-05-09T07:50:00.725Z,14.02
2024-05-09T07:53:55.960Z,12.93
2024-05-09T07:56:29.096Z,13.05
2024-05-09T07:58:59.716Z,13.10
2024-05-09T08:01:27.622Z,12.90
2024-05-09T08:03:58.452Z,12.77
2024-05-09T08:06:27.049Z,13.43
2024-05-09T08:09:05.107Z,13.77
2024-05-09T08:11:38.344Z,13.17
2024-05-09T08:14:08.885Z,14.32
2024-05-09T08:16:36.446Z,13.38
2024-05-09T08:19:06.872Z,13.02
2024-05-09T08:21:34.541Z,12.90
2024-05-09T08:24:04.798Z,14.65
2024-05-09T08:26:32.475Z,13.35
2024-05-09T08:29:05.671Z,13.10
2024-05-09T08:31:38.457Z,12.90
2024-05-09T08:34:08.956Z,13.35
2024-05-09T08:36:36.784Z,12.60
2024-05-09T08:39:07.237Z,12.63
2024-05-09T08:41:35.535Z,11.70
2024-05-09T08:44:08.526Z,11.80
2024-05-09T08:46:36.336Z,11.98
2024-05-09T08:49:07.117Z,11.30
2024-05-09T08:51:35.204Z,10.85
2024-05-09T08:54:05.731Z,11.17
2024-05-09T08:56:35.483Z,9.57
2024-05-09T08:59:11.406Z,9.18
2024-05-09T09:01:41.231Z,8.75
2024-05-09T09:04:13.729Z,8.88
2024-05-09T09:06:41.684Z,8.35
2024-05-09T09:09:13.741Z,7.05
2024-05-09T09:11:41.404Z,6.63
2024-05-09T09:14:14.469Z,6.97
2024-05-09T09:16:42.102Z,7.00
2024-05-09T09:19:14.833Z,6.53
2024-05-09T09:21:42.800Z,8.00
2024-05-09T09:24:13.270Z,8.48
2024-05-09T09:26:40.946Z,9.40
2024-05-09T09:29:14.176Z,9.43
2024-05-09T09:31:42.230Z,8.65
2024-05-09T09:34:13.179Z,8.65
2024-05-09T09:36:43.342Z,9.02
2024-05-09T09:39:13.543Z,8.90
2024-05-09T09:41:41.940Z,9.40
2024-05-09T09:44:15.167Z,9.25
2024-05-09T09:46:42.813Z,9.20
2024-05-09T09:49:13.617Z,9.48
2024-05-09T09:51:43.891Z,8.47
2024-05-09T09:54:15.178Z,9.48
2024-05-09T09:56:45.428Z,9.80
2024-05-09T09:59:19.461Z,10.32
2024-05-09T10:01:47.380Z,9.20
2024-05-09T10:04:19.563Z,10.20
2024-05-09T10:06:51.331Z,9.93
2024-05-09T10:09:21.858Z,11.40
2024-05-09T10:11:52.329Z,10.27
2024-05-09T10:14:31.065Z,9.75
2024-05-09T10:17:05.561Z,9.90
2024-05-09T10:19:36.183Z,10.98
2024-05-09T10:22:06.131Z,10.02
2024-05-09T10:24:50.870Z,9.68
2024-05-09T10:27:27.168Z,9.82
2024-05-09T10:30:01.123Z,10.70
2024-05-09T10:32:29.736Z,11.82
2024-05-09T10:35:03.762Z,9.80
2024-05-09T10:37:32.482Z,9.70
2024-05-09T10:40:07.218Z,8.55
2024-05-09T10:42:41.862Z,7.93
2024-05-09T10:45:15.044Z,8.50
2024-05-09T10:47:42.831Z,8.73
2024-05-09T10:50:22.214Z,8.70
2024-05-09T10:52:55.906Z,8.32
2024-05-09T10:55:26.211Z,8.55
2024-05-09T11:28:55.810Z,9.97
2024-05-09T11:31:23.771Z,9.00
2024-05-09T11:33:58.502Z,11.15
2024-05-09T11:36:26.203Z,8.37
2024-05-09T11:38:56.484Z,14.93
2024-05-09T11:41:26.460Z,8.63
2024-05-09T11:43:59.384Z,7.73
2024-05-09T11:46:27.960Z,7.78
2024-05-09T11:48:58.428Z,7.22
2024-05-09T11:51:26.241Z,7.60
2024-05-09T11:53:57.422Z,7.40
2024-05-09T11:56:25.182Z,9.25
2024-05-09T11:58:56.038Z,7.93
2024-05-09T12:01:29.154Z,7.55
2024-05-09T12:04:00.018Z,7.70
2024-05-09T12:06:28.205Z,7.40
2024-05-09T12:08:58.772Z,7.50
2024-05-09T12:11:26.414Z,7.65
2024-05-09T12:13:56.895Z,7.73
2024-05-09T12:16:24.871Z,7.85
2024-05-09T12:18:58.170Z,7.20
2024-05-09T12:21:26.106Z,6.78
2024-05-09T12:23:56.692Z,7.30
2024-05-09T12:26:24.507Z,7.53
2024-05-09T12:28:54.953Z,7.20
2024-05-09T12:31:22.779Z,6.68
2024-05-09T12:33:54.735Z,7.35
2024-05-09T12:36:25.289Z,6.78
2024-05-09T12:38:55.608Z,6.55
2024-05-09T12:41:23.392Z,5.90
2024-05-09T12:43:53.944Z,6.27
2024-05-09T12:46:22.646Z,5.93
2024-05-09T12:48:53.706Z,6.15
2024-05-09T12:51:24.434Z,5.70
2024-05-09T12:53:54.769Z,5.78
2024-05-09T12:56:22.672Z,6.70
2024-05-09T12:58:52.987Z,6.68
2024-05-09T13:01:20.818Z,6.03
2024-05-09T13:03:51.452Z,5.22
2024-05-09T13:06:19.311Z,5.37
2024-05-09T13:08:52.447Z,5.05
2024-05-09T13:11:20.395Z,5.22
2024-05-09T13:13:50.956Z,12.02
2024-05-09T13:16:18.957Z,4.53
2024-05-09T13:18:49.594Z,5.25
2024-05-09T13:21:17.394Z,5.13
2024-05-09T13:23:47.845Z,6.43
2024-05-09T13:26:18.504Z,6.35
2024-05-09T13:28:48.786Z,5.15
2024-05-09T13:31:17.039Z,5.28
2024-05-09T13:33:47.725Z,4.93
2024-05-09T13:36:15.584Z,4.53
2024-05-09T13:38:45.967Z,5.88
2024-05-09T13:41:13.987Z,5.78
2024-05-09T13:43:47.043Z,6.05
2024-05-09T13:46:15.305Z,4.95
2024-05-09T13:48:45.790Z,6.15
2024-05-09T13:51:13.648Z,4.77
2024-05-09T13:53:44.042Z,4.55
2024-05-09T13:56:12.978Z,4.25
2024-05-09T13:58:44.025Z,4.70
2024-05-09T14:01:14.532Z,9.30
2024-05-09T14:03:45.168Z,5.63
2024-05-09T14:06:13.330Z,8.25
2024-05-09T14:08:43.858Z,5.47
2024-05-09T14:11:11.767Z,7.88
2024-05-09T14:13:42.203Z,3.92
2024-05-09T14:16:10.157Z,6.28
2024-05-09T14:18:43.564Z,5.80
2024-05-09T14:21:11.408Z,5.15
2024-05-09T14:23:41.789Z,5.30
2024-05-09T14:26:09.857Z,5.35
2024-05-09T14:28:40.062Z,5.50
2024-05-09T14:31:07.739Z,4.90
2024-05-09T14:33:38.558Z,4.83
2024-05-09T14:36:09.436Z,7.47
2024-05-09T14:38:39.937Z,4.67
2024-05-09T14:41:09.474Z,7.53
2024-05-09T14:43:39.757Z,5.22
2024-05-09T14:46:07.579Z,7.60
2024-05-09T14:48:38.190Z,9.88
2024-05-09T14:51:08.783Z,6.70
2024-05-09T14:53:39.151Z,7.22
2024-05-09T14:56:07.529Z,6.00
2024-05-09T14:58:38.198Z,5.55
2024-05-09T15:01:06.375Z,5.63
2024-05-09T15:03:36.930Z,4.30
2024-05-09T15:06:05.573Z,4.85
2024-05-09T15:08:38.895Z,5.10
2024-05-09T15:11:06.763Z,5.50
2024-05-09T15:13:37.370Z,5.10
2024-05-09T15:16:05.775Z,5.43
2024-05-09T15:18:36.208Z,6.05
2024-05-09T15:21:04.045Z,6.20
2024-05-09T15:23:34.469Z,6.22
2024-05-09T15:26:05.499Z,6.22
2024-05-09T15:28:35.818Z,6.03
2024-05-09T15:31:03.432Z,5.70
2024-05-09T15:33:33.983Z,6.20
2024-05-09T15:36:02.052Z,4.85
2024-05-09T15:38:32.651Z,5.70
2024-05-09T15:41:00.462Z,6.93
2024-05-09T15:43:33.732Z,8.35
2024-05-09T15:46:01.572Z,8.85
2024-05-09T15:48:32.221Z,9.40
2024-05-09T15:51:00.052Z,8.80
2024-05-09T15:53:30.483Z,9.57
2024-05-09T15:55:58.205Z,9.20
2024-05-09T15:58:28.858Z,9.30
2024-05-09T16:00:59.930Z,9.48
2024-05-09T16:03:30.620Z,9.75
2024-05-09T16:05:58.881Z,9.65
2024-05-09T16:08:29.386Z,9.65
2024-05-09T16:10:57.115Z,9.35
2024-05-09T16:13:27.767Z,9.38
2024-05-09T16:15:55.770Z,10.30
2024-05-09T16:18:28.830Z,9.45
2024-05-09T16:21:00.366Z,9.60
2024-05-09T16:23:32.776Z,9.40
2024-05-09T16:26:00.616Z,9.52
2024-05-09T16:28:31.150Z,9.93
2024-05-09T16:31:00.027Z,10.20
2024-05-09T16:33:33.611Z,10.10
2024-05-09T16:36:01.340Z,10.20
2024-05-09T16:38:31.690Z,11.30
2024-05-09T16:41:00.350Z,10.20
2024-05-09T16:43:30.738Z,10.45
2024-05-09T16:45:58.723Z,11.18
2024-05-09T16:48:29.109Z,11.60
2024-05-09T16:50:59.470Z,10.63
2024-05-09T16:53:29.945Z,10.85
2024-05-09T16:55:57.684Z,11.02
2024-05-09T16:58:28.457Z,11.23
2024-05-09T17:00:56.342Z,11.32
2024-05-09T17:07:22.028Z,11.35
2024-05-09T17:09:49.973Z,11.18
2024-05-09T17:12:20.302Z,10.45
2024-05-09T17:14:50.672Z,10.20
2024-05-09T17:17:21.366Z,10.60
2024-05-09T17:19:52.184Z,10.82
2024-05-09T17:22:22.651Z,10.83
2024-05-09T17:24:53.258Z,11.52
2024-05-09T17:27:21.127Z,10.70
2024-05-09T17:29:51.912Z,11.45
2024-05-09T17:32:37.442Z,11.68
2024-05-09T17:35:05.823Z,11.32
2024-05-09T17:37:36.436Z,11.57
2024-05-09T17:40:06.824Z,11.73
2024-05-09T17:42:41.800Z,11.57
2024-05-09T17:45:09.544Z,11.48
2024-05-09T17:47:42.890Z,11.85
2024-05-09T17:50:15.046Z,10.90
2024-05-09T17:52:53.972Z,11.50
2024-05-09T17:55:21.768Z,11.63
2024-05-09T17:57:52.279Z,11.53
2024-05-09T18:00:28.958Z,11.77
2024-05-09T18:03:11.842Z,12.98
2024-05-09T18:05:40.996Z,12.13
2024-05-09T18:08:11.999Z,11.38
2024-05-09T18:10:41.062Z,11.98
2024-05-09T18:13:12.617Z,12.10
2024-05-09T18:15:40.799Z,12.63
2024-05-09T18:18:16.605Z,12.02
2024-05-09T18:20:46.360Z,13.18
2024-05-09T18:23:19.094Z,12.77
2024-05-09T18:25:47.878Z,13.10
2024-05-09T18:28:18.944Z,12.63
2024-05-09T18:30:47.101Z,13.60
2024-05-09T18:33:20.716Z,13.35
2024-05-09T18:35:48.992Z,12.52
2024-05-09T18:38:25.732Z,13.07
2024-05-09T18:40:53.732Z,12.95
2024-05-09T18:43:28.832Z,12.63
2024-05-09T18:46:04.300Z,14.50
2024-05-09T18:48:37.520Z,13.63
2024-05-09T18:52:12.592Z,14.23
2024-05-09T18:54:40.439Z,14.20
2024-05-09T18:57:10.891Z,13.60
2024-05-09T18:59:38.776Z,13.25
2024-05-09T19:02:09.531Z,13.05
2024-05-09T19:04:37.577Z,8.20
2024-05-09T19:08:16.257Z,12.88
2024-05-09T19:10:46.125Z,12.65
2024-05-09T19:13:17.268Z,12.57
2024-05-09T19:15:45.278Z,12.90
2024-05-09T19:18:17.275Z,12.68
2024-05-09T19:20:45.589Z,12.88
2024-05-09T19:23:18.778Z,12.93
2024-05-09T19:25:46.786Z,12.57
2024-05-09T19:28:17.321Z,13.05
2024-05-09T19:30:45.438Z,12.38
2024-05-09T19:33:15.895Z,12.50
2024-05-09T19:35:44.190Z,12.20
2024-05-09T19:38:18.101Z,12.52
2024-05-09T19:40:46.071Z,12.15
2024-05-09T19:43:16.771Z,11.80
2024-05-09T19:45:44.897Z,12.60
2024-05-09T19:48:15.442Z,14.10
2024-05-09T19:50:44.850Z,16.35
2024-05-09T19:53:19.343Z,18.02
2024-05-09T19:55:46.998Z,17.35
2024-05-09T19:58:17.354Z,15.27
2024-05-09T20:00:45.202Z,13.77
2024-05-09T20:03:16.712Z,13.98
2024-05-09T20:05:46.731Z,15.20
2024-05-09T20:08:20.418Z,15.20
2024-05-09T20:10:48.637Z,14.63
2024-05-09T20:13:19.066Z,14.30
2024-05-09T20:15:47.108Z,14.10
2024-05-09T20:18:18.093Z,14.60
2024-05-09T20:20:47.238Z,14.27
2024-05-09T20:23:21.307Z,14.35
2024-05-09T20:25:49.061Z,14.98
2024-05-09T20:28:19.691Z,15.30
2024-05-09T20:30:47.454Z,14.75
2024-05-09T20:33:17.953Z,14.98
2024-05-09T20:35:45.801Z,15.00
2024-05-09T20:38:16.383Z,15.38
2024-05-09T20:40:46.919Z,15.18
2024-05-09T20:43:17.491Z,14.90
2024-05-09T20:45:45.156Z,14.75
2024-05-09T20:48:15.649Z,14.90
2024-05-09T20:50:43.569Z,14.70
2024-05-09T20:53:15.336Z,14.48
2024-05-09T20:55:47.194Z,15.45
2024-05-09T20:58:17.577Z,16.38
2024-05-09T21:00:46.370Z,22.48
2024-05-09T21:03:18.188Z,24.33
2024-05-09T21:05:47.324Z,21.53
2024-05-09T21:08:18.364Z,21.50
2024-05-09T21:10:49.026Z,21.33
2024-05-09T21:13:20.007Z,18.73
2024-05-09T21:15:47.909Z,18.30
2024-05-09T21:18:18.539Z,16.40
2024-05-09T21:20:46.282Z,17.50
2024-05-09T21:23:16.719Z,16.67
2024-05-09T21:25:44.405Z,17.75
2024-05-09T21:28:17.731Z,19.50
2024-05-09T21:30:45.782Z,20.45
2024-05-09T21:33:16.576Z,20.20
2024-05-09T21:35:45.218Z,18.20
2024-05-09T21:38:16.372Z,18.23
2024-05-09T21:40:44.934Z,17.42
2024-05-09T21:43:18.709Z,17.70
2024-05-09T21:45:46.676Z,18.27
2024-05-09T21:48:17.159Z,17.50
2024-05-09T21:50:45.210Z,17.60
2024-05-09T21:53:16.036Z,17.70
2024-05-09T21:55:43.818Z,18.30
2024-05-09T21:58:17.736Z,17.63
2024-05-09T22:00:46.590Z,18.65
2024-05-09T22:03:17.910Z,19.10
2024-05-09T22:05:45.875Z,18.42
2024-05-09T22:08:16.203Z,18.57
2024-05-09T22:10:44.099Z,19.60
2024-05-09T22:13:15.988Z,20.23
2024-05-09T22:15:46.624Z,21.17
2024-05-09T22:18:17.444Z,20.50
2024-05-09T22:20:46.416Z,20.40
2024-05-09T22:23:18.223Z,21.00
2024-05-09T22:25:46.044Z,19.83
2024-05-09T22:28:18.193Z,19.92
2024-05-09T22:30:50.696Z,20.13
2024-05-09T22:33:21.290Z,20.25
2024-05-09T22:35:49.051Z,21.27
2024-05-09T22:38:19.334Z,20.17
2024-05-09T22:40:49.527Z,21.75
2024-05-09T22:43:25.255Z,20.88
2024-05-09T22:45:56.322Z,21.70
2024-05-09T22:48:26.962Z,21.70
2024-05-09T22:50:55.294Z,21.83
2024-05-09T22:53:26.607Z,20.88
2024-05-09T22:55:54.697Z,20.50
2024-05-09T22:58:26.055Z,20.83
2024-05-09T23:00:56.493Z,20.77
2024-05-09T23:03:27.019Z,21.40
2024-05-09T23:05:54.874Z,21.80
2024-05-09T23:08:25.647Z,20.50
2024-05-09T23:10:53.796Z,21.33
2024-05-09T23:13:24.868Z,21.20
2024-05-09T23:15:52.690Z,20.15
2024-05-09T23:18:25.799Z,20.45
2024-05-09T23:20:56.729Z,20.80
2024-05-09T23:23:26.993Z,20.90
2024-05-09T23:25:54.645Z,20.50
2024-05-09T23:28:25.124Z,21.13
2024-05-09T23:30:52.942Z,20.40
2024-05-09T23:33:26.137Z,20.80
2024-05-09T23:35:53.874Z,20.73
2024-05-09T23:38:24.893Z,20.35
2024-05-09T23:40:52.964Z,20.95
2024-05-09T23:43:23.746Z,20.17
2024-05-09T23:45:51.564Z,20.65
2024-05-09T23:48:22.250Z,20.08
2024-05-09T23:50:52.788Z,20.80
2024-05-09T23:53:23.258Z,20.52
2024-05-09T23:55:51.084Z,19.63
2024-05-09T23:58:21.725Z,20.25
